createdAt,value
2023-03-12T00:02:35.408Z,-0.7
2023-03-12T00:14:35.328Z,-0.6
2023-03-12T00:26:35.353Z,-0.5
2023-03-12T00:38:36.402Z,-0.5
2023-03-12T00:50:35.485Z,-0.4
2023-03-12T01:02:35.359Z,-0.4
2023-03-12T01:14:35.338Z,-0.4
2023-03-12T01:26:35.449Z,-0.4
2023-03-12T01:38:35.334Z,-0.3
2023-03-12T01:50:35.334Z,-0.3
2023-03-12T02:02:35.417Z,-0.2
2023-03-12T02:14:35.332Z,-0.2
2023-03-12T02:26:35.320Z,-0.2
2023-03-12T02:38:35.319Z,-0.4
2023-03-12T02:50:35.334Z,-0.3
2023-03-12T03:02:35.343Z,-0.3
2023-03-12T03:14:35.389Z,-0.4
2023-03-12T03:26:35.395Z,-0.2
2023-03-12T03:38:35.335Z,-0.1
2023-03-12T03:50:35.422Z,0.1
2023-03-12T04:02:35.330Z,0.2
2023-03-12T04:14:35.334Z,0.2
2023-03-12T04:26:35.334Z,0.1
2023-03-12T04:38:35.348Z,0.0
2023-03-12T04:50:35.361Z,0.1
2023-03-12T05:02:35.390Z,-0.1
2023-03-12T05:14:35.426Z,-0.2
2023-03-12T05:26:35.357Z,-0.4
2023-03-12T05:38:35.371Z,-0.4
2023-03-12T05:50:35.340Z,-0.4
2023-03-12T06:02:35.389Z,-0.4
2023-03-12T06:14:35.445Z,-0.3
2023-03-12T06:26:35.334Z,-0.2
2023-03-12T06:38:35.322Z,-0.1
2023-03-12T06:50:35.325Z,-0.1
2023-03-12T07:02:35.519Z,0.0
2023-03-12T07:14:35.708Z,-0.0
2023-03-12T07:26:35.333Z,-0.1
2023-03-12T07:38:35.473Z,-0.1
2023-03-12T07:50:35.464Z,-0.1
2023-03-12T08:02:35.398Z,-0.0
2023-03-12T08:14:35.444Z,-0.1
2023-03-12T08:26:35.337Z,-0.1
2023-03-12T08:38:35.537Z,0.1
2023-03-12T08:50:35.345Z,0.2
2023-03-12T09:02:35.346Z,0.4
2023-03-12T09:15:02.928Z,0.5
2023-03-12T09:26:35.337Z,0.6
2023-03-12T09:38:35.346Z,1.2
2023-03-12T09:50:35.345Z,1.5
2023-03-12T10:02:35.321Z,1.7
2023-03-12T10:14:35.325Z,2.0
2023-03-12T10:26:35.398Z,2.3
2023-03-12T10:38:35.342Z,2.7
2023-03-12T10:50:35.452Z,3.4
2023-03-12T11:02:35.432Z,3.9
2023-03-12T11:14:35.325Z,4.6
2023-03-12T11:26:35.418Z,5.3
2023-03-12T11:38:35.424Z,5.7
2023-03-12T11:50:35.337Z,5.9
2023-03-12T12:02:35.409Z,7.1
2023-03-12T12:14:35.334Z,7.2
2023-03-12T12:26:35.471Z,6.9
2023-03-12T12:38:35.335Z,7.1
2023-03-12T12:50:35.351Z,7.4
2023-03-12T13:02:35.332Z,7.6
2023-03-12T13:14:35.343Z,8.1
2023-03-12T13:26:35.339Z,8.5
2023-03-12T13:38:35.404Z,9.3
2023-03-12T13:50:35.373Z,9.0
2023-03-12T14:02:35.461Z,9.0
2023-03-12T14:14:35.367Z,9.5
2023-03-12T14:26:35.345Z,9.5
2023-03-12T14:38:35.458Z,9.3
2023-03-12T14:50:35.350Z,9.2
2023-03-12T15:02:35.331Z,9.2
2023-03-12T15:14:35.416Z,9.0
2023-03-12T15:26:35.357Z,9.2
2023-03-12T15:38:35.342Z,9.2
2023-03-12T15:50:35.418Z,9.1
2023-03-12T16:02:35.468Z,9.2
2023-03-12T16:14:35.461Z,9.2
2023-03-12T16:26:35.421Z,9.2
2023-03-12T16:38:35.350Z,9.1
2023-03-12T16:50:35.362Z,9.1
2023-03-12T17:02:35.456Z,9.2
2023-03-12T17:14:35.438Z,9.1
2023-03-12T17:26:35.342Z,9.2
2023-03-12T17:38:35.455Z,9.0
2023-03-12T17:50:35.461Z,9.1
2023-03-12T18:02:35.448Z,9.0
2023-03-12T18:14:35.343Z,8.9
2023-03-12T18:26:35.416Z,8.9
2023-03-12T18:38:35.352Z,8.9
2023-03-12T18:50:35.461Z,8.8
2023-03-12T19:02:35.536Z,8.7
2023-03-12T19:14:35.451Z,8.6
2023-03-12T19:26:35.383Z,8.7
2023-03-12T19:38:35.349Z,8.5
2023-03-12T19:50:35.407Z,8.4
2023-03-12T20:02:35.571Z,8.3
2023-03-12T20:14:35.417Z,8.2
2023-03-12T20:26:35.339Z,8.2
2023-03-12T20:38:35.789Z,8.2
2023-03-12T20:50:35.350Z,8.2
2023-03-12T21:02:35.635Z,8.1
2023-03-12T21:14:35.422Z,8.1
2023-03-12T21:26:35.413Z,8.2
2023-03-12T21:38:35.471Z,8.2
2023-03-12T21:50:35.342Z,8.1
2023-03-12T22:02:35.391Z,8.2
2023-03-12T22:14:35.437Z,8.3
2023-03-12T22:26:35.473Z,8.3
2023-03-12T22:38:35.467Z,8.3
2023-03-12T22:50:35.409Z,8.3
2023-03-12T23:02:35.337Z,8.3
2023-03-12T23:14:35.457Z,8.4
2023-03-12T23:26:35.405Z,8.4
2023-03-12T23:38:37.469Z,8.4
2023-03-12T23:50:35.373Z,8.4
